createdAt,value
2022-11-25T00:01:39.284Z,100334.53
2022-11-25T00:04:08.095Z,100331.50
2022-11-25T00:06:36.231Z,100333.81
2022-11-25T00:09:04.684Z,100338.53
2022-11-25T00:11:32.276Z,100337.97
2022-11-25T00:13:59.852Z,100334.41
2022-11-25T00:16:27.623Z,100339.78
2022-11-25T00:18:55.777Z,100332.72
2022-11-25T00:21:25.233Z,100333.06
2022-11-25T00:23:53.443Z,100343.44
2022-11-25T00:26:21.066Z,100331.91
2022-11-25T00:28:48.656Z,100336.28
2022-11-25T00:31:17.278Z,100325.63
2022-11-25T00:33:44.817Z,100331.22
2022-11-25T00:36:15.764Z,100318.63
2022-11-25T00:38:44.742Z,100335.75
2022-11-25T00:41:29.819Z,100333.50
2022-11-25T00:44:14.697Z,100324.56
2022-11-25T00:46:42.446Z,100339.31
2022-11-25T00:49:09.968Z,100327.13
2022-11-25T00:51:37.603Z,100325.25
2022-11-25T00:54:06.612Z,100332.00
2022-11-25T00:56:34.128Z,100328.34
2022-11-25T00:59:01.615Z,100336.41
2022-11-25T01:01:29.209Z,100331.44
2022-11-25T01:03:56.761Z,100334.94
2022-11-25T01:06:24.295Z,100333.97
2022-11-25T01:08:51.801Z,100338.31
2022-11-25T01:11:21.509Z,100328.34
2022-11-25T01:13:49.230Z,100323.75
2022-11-25T01:16:17.935Z,100316.13
2022-11-25T01:18:45.636Z,100327.41
2022-11-25T01:21:14.108Z,100322.50
2022-11-25T01:23:41.751Z,100340.91
2022-11-25T01:26:09.867Z,100333.19
2022-11-25T01:28:38.757Z,100326.19
2022-11-25T01:31:06.899Z,100327.44
2022-11-25T01:33:34.517Z,100332.59
2022-11-25T01:36:02.787Z,100330.94
2022-11-25T01:38:30.298Z,100327.16
2022-11-25T01:40:57.849Z,100327.13
2022-11-25T01:43:25.536Z,100316.94
2022-11-25T01:45:54.518Z,100324.50
2022-11-25T01:48:23.463Z,100319.59
2022-11-25T01:50:50.976Z,100323.03
2022-11-25T01:53:18.515Z,100320.16
2022-11-25T01:55:46.441Z,100327.31
2022-11-25T01:58:14.312Z,100312.84
2022-11-25T02:00:41.916Z,100320.75
2022-11-25T02:03:10.772Z,100324.22
2022-11-25T02:05:39.671Z,100320.66
2022-11-25T02:08:07.304Z,100310.22
2022-11-25T02:10:34.814Z,100316.81
2022-11-25T02:13:02.340Z,100314.34
2022-11-25T02:15:30.185Z,100312.59
2022-11-25T02:17:57.725Z,100309.66
2022-11-25T02:20:26.566Z,100310.13
2022-11-25T02:22:56.060Z,100307.59
2022-11-25T02:25:25.482Z,100299.75
2022-11-25T02:27:53.939Z,100305.66
2022-11-25T02:30:21.471Z,100320.94
2022-11-25T02:32:48.971Z,100308.66
2022-11-25T02:35:26.626Z,100310.22
2022-11-25T02:37:54.680Z,100303.34
2022-11-25T02:40:22.123Z,100305.84
2022-11-25T02:42:51.181Z,100301.56
2022-11-25T02:45:19.109Z,100305.03
2022-11-25T02:47:46.656Z,100312.38
2022-11-25T02:50:14.704Z,100291.47
2022-11-25T02:52:42.847Z,100289.00
2022-11-25T02:55:10.592Z,100305.38
2022-11-25T02:57:38.108Z,100302.78
2022-11-25T03:00:08.055Z,100315.72
2022-11-25T03:02:35.631Z,100305.19
2022-11-25T03:05:03.864Z,100316.81
2022-11-25T03:07:31.449Z,100304.19
2022-11-25T03:09:58.986Z,100296.47
2022-11-25T03:12:26.504Z,100300.59
2022-11-25T03:14:53.960Z,100306.09
2022-11-25T03:17:22.799Z,100304.94
2022-11-25T03:19:50.287Z,100304.97
2022-11-25T03:22:17.782Z,100295.34
2022-11-25T03:24:45.318Z,100301.13
2022-11-25T03:27:12.844Z,100307.44
2022-11-25T03:29:40.288Z,100294.59
2022-11-25T03:32:09.713Z,100300.44
2022-11-25T03:34:39.054Z,100296.88
2022-11-25T03:37:06.608Z,100303.28
2022-11-25T03:39:34.243Z,100301.38
2022-11-25T03:42:01.805Z,100303.16
2022-11-25T03:44:29.277Z,100309.41
2022-11-25T03:46:56.787Z,100300.06
2022-11-25T03:49:24.294Z,100311.94
2022-11-25T03:51:53.392Z,100303.84
2022-11-25T03:54:20.915Z,100305.50
2022-11-25T03:56:48.424Z,100307.00
2022-11-25T03:59:15.882Z,100306.66
2022-11-25T04:01:44.492Z,100318.53
2022-11-25T04:04:12.190Z,100303.25
2022-11-25T04:06:40.220Z,100322.38
2022-11-25T04:09:09.466Z,100308.88
2022-11-25T04:11:53.510Z,100311.81
2022-11-25T04:14:20.971Z,100312.00
2022-11-25T04:16:48.543Z,100316.25
2022-11-25T04:19:16.065Z,100306.06
2022-11-25T04:21:45.843Z,100317.47
2022-11-25T04:24:18.213Z,100318.53
2022-11-25T04:26:45.702Z,100327.56
2022-11-25T04:29:13.204Z,100321.56
2022-11-25T04:31:40.727Z,100331.34
2022-11-25T04:34:08.234Z,100324.91
2022-11-25T04:36:35.687Z,100328.13
2022-11-25T04:39:03.185Z,100328.72
2022-11-25T04:41:32.125Z,100331.72
2022-11-25T04:44:00.468Z,100340.91
2022-11-25T04:46:29.262Z,100339.13
2022-11-25T04:48:56.824Z,100340.34
2022-11-25T04:51:24.315Z,100352.81
2022-11-25T04:53:51.804Z,100349.53
2022-11-25T04:56:20.405Z,100333.94
2022-11-25T04:59:06.887Z,100342.28
2022-11-25T05:01:34.423Z,100345.09
2022-11-25T05:04:01.923Z,100345.19
2022-11-25T05:06:29.407Z,100338.03
2022-11-25T05:08:56.965Z,100320.38
2022-11-25T05:11:24.415Z,100339.78
2022-11-25T05:13:53.226Z,100345.25
2022-11-25T05:16:20.791Z,100333.19
2022-11-25T05:18:48.336Z,100341.91
2022-11-25T05:21:15.840Z,100346.78
2022-11-25T05:23:43.342Z,100341.09
2022-11-25T05:26:10.852Z,100360.59
2022-11-25T05:28:38.330Z,100362.38
2022-11-25T05:31:07.314Z,100363.78
2022-11-25T05:33:34.871Z,100375.63
2022-11-25T05:36:03.205Z,100384.19
2022-11-25T05:38:30.876Z,100380.97
2022-11-25T05:41:01.536Z,100373.06
2022-11-25T05:43:29.098Z,100392.72
2022-11-25T05:45:56.731Z,100387.09
2022-11-25T05:48:25.633Z,100384.72
2022-11-25T05:50:53.106Z,100398.13
2022-11-25T05:53:20.584Z,100398.88
2022-11-25T05:55:54.720Z,100382.66
2022-11-25T05:58:22.267Z,100405.06
2022-11-25T06:00:49.783Z,100403.59
2022-11-25T06:03:17.534Z,100401.00
2022-11-25T06:05:46.427Z,100404.09
2022-11-25T06:08:13.862Z,100413.31
2022-11-25T06:10:41.475Z,100405.31
2022-11-25T06:13:09.164Z,100417.69
2022-11-25T06:15:36.853Z,100411.28
2022-11-25T06:18:04.499Z,100404.66
2022-11-25T06:20:32.004Z,100407.28
2022-11-25T06:23:00.839Z,100419.97
2022-11-25T06:25:28.860Z,100421.22
2022-11-25T06:28:12.281Z,100413.00
2022-11-25T06:30:40.524Z,100417.94
2022-11-25T06:33:08.030Z,100419.13
2022-11-25T06:35:35.539Z,100425.78
2022-11-25T06:38:04.338Z,100434.38
2022-11-25T06:40:32.729Z,100446.63
2022-11-25T06:43:00.246Z,100446.28
2022-11-25T06:45:27.893Z,100450.84
2022-11-25T06:47:55.385Z,100448.31
2022-11-25T06:50:22.851Z,100452.44
2022-11-25T06:52:50.319Z,100461.50
2022-11-25T06:55:19.376Z,100460.28
2022-11-25T06:57:46.862Z,100458.75
2022-11-25T07:00:14.990Z,100466.34
2022-11-25T07:02:46.867Z,100479.72
2022-11-25T07:05:16.231Z,100471.81
2022-11-25T07:07:43.827Z,100465.81
2022-11-25T07:10:11.642Z,100479.47
2022-11-25T07:12:40.986Z,100483.69
2022-11-25T07:15:08.759Z,100478.69
2022-11-25T07:17:36.227Z,100490.31
2022-11-25T07:20:03.767Z,100493.22
2022-11-25T07:22:31.289Z,100497.03
2022-11-25T07:24:58.783Z,100494.41
2022-11-25T07:27:26.243Z,100496.63
2022-11-25T07:30:29.205Z,100504.53
2022-11-25T07:32:42.547Z,100498.94
2022-11-25T07:35:10.318Z,100501.69
2022-11-25T07:37:37.803Z,100507.16
2022-11-25T07:40:05.927Z,100504.53
2022-11-25T07:42:33.744Z,100521.47
2022-11-25T07:45:02.567Z,100515.63
2022-11-25T07:47:30.030Z,100532.63
2022-11-25T07:49:57.474Z,100534.69
2022-11-25T07:52:25.004Z,100532.97
2022-11-25T07:54:52.545Z,100533.44
2022-11-25T07:57:20.105Z,100543.81
2022-11-25T07:59:47.592Z,100546.28
2022-11-25T08:02:16.729Z,100551.63
2022-11-25T08:04:44.274Z,100540.59
2022-11-25T08:07:11.827Z,100548.88
2022-11-25T08:09:39.627Z,100556.56
2022-11-25T08:12:07.317Z,100567.38
2022-11-25T08:14:35.372Z,100568.28
2022-11-25T08:17:04.524Z,100573.75
2022-11-25T08:19:33.343Z,100572.53
2022-11-25T08:22:00.838Z,100580.72
2022-11-25T08:24:28.376Z,100586.66
2022-11-25T08:26:58.598Z,100582.59
2022-11-25T08:29:26.141Z,100583.78
2022-11-25T08:31:53.647Z,100581.06
2022-11-25T08:34:21.871Z,100594.47
2022-11-25T08:36:50.774Z,100598.50
2022-11-25T08:42:06.304Z,100596.84
2022-11-25T08:44:33.824Z,100575.63
2022-11-25T08:47:01.513Z,100608.47
2022-11-25T08:49:32.636Z,100603.59
2022-11-25T08:52:03.815Z,100612.72
2022-11-25T08:54:31.596Z,100594.31
2022-11-25T08:57:00.660Z,100606.69
2022-11-25T08:59:28.205Z,100597.03
2022-11-25T09:01:55.817Z,100597.38
2022-11-25T09:04:23.345Z,100616.84
2022-11-25T09:06:50.827Z,100608.78
2022-11-25T09:09:19.746Z,100622.28
2022-11-25T09:11:47.301Z,100612.16
2022-11-25T09:14:14.972Z,100634.88
2022-11-25T09:16:42.621Z,100618.88
2022-11-25T09:19:10.269Z,100624.00
2022-11-25T09:21:37.777Z,100635.34
2022-11-25T09:24:05.295Z,100646.13
2022-11-25T09:26:35.825Z,100650.59
2022-11-25T09:29:03.752Z,100643.38
2022-11-25T09:31:31.355Z,100642.94
2022-11-25T09:33:58.987Z,100644.03
2022-11-25T09:36:26.471Z,100672.50
2022-11-25T09:38:53.980Z,100668.81
2022-11-25T09:41:39.616Z,100676.91
2022-11-25T09:44:27.296Z,100672.13
2022-11-25T09:46:55.894Z,100675.88
2022-11-25T09:49:29.839Z,100678.25
2022-11-25T09:51:59.694Z,100672.78
2022-11-25T09:54:27.855Z,100687.97
2022-11-25T09:56:56.116Z,100677.63
2022-11-25T09:59:26.344Z,100681.03
2022-11-25T10:01:55.746Z,100688.16
2022-11-25T10:04:24.790Z,100689.78
2022-11-25T10:06:55.588Z,100690.03
2022-11-25T10:09:24.141Z,100688.69
2022-11-25T10:11:52.713Z,100701.16
2022-11-25T10:14:22.915Z,100687.16
2022-11-25T10:16:52.763Z,100703.31
2022-11-25T10:19:24.205Z,100700.81
2022-11-25T10:21:51.989Z,100694.75
2022-11-25T10:24:21.291Z,100709.84
2022-11-25T10:26:50.387Z,100699.06
2022-11-25T10:29:21.488Z,100703.81
2022-11-25T10:31:49.044Z,100711.38
2022-11-25T10:34:19.521Z,100720.22
2022-11-25T10:36:46.980Z,100723.34
2022-11-25T10:39:14.947Z,100719.63
2022-11-25T10:41:44.668Z,100719.28
2022-11-25T10:44:13.455Z,100720.50
2022-11-25T10:47:11.892Z,100727.78
2022-11-25T10:49:32.200Z,100715.41
2022-11-25T10:51:59.810Z,100725.88
2022-11-25T10:54:28.262Z,100728.53
2022-11-25T10:56:57.661Z,100727.59
2022-11-25T10:59:26.817Z,100746.09
2022-11-25T11:01:54.603Z,100727.78
2022-11-25T11:04:22.244Z,100737.59
2022-11-25T11:06:51.147Z,100756.41
2022-11-25T11:09:34.916Z,100751.84
2022-11-25T11:12:09.119Z,100752.69
2022-11-25T11:14:36.827Z,100749.94
2022-11-25T11:17:04.611Z,100743.22
2022-11-25T11:19:32.381Z,100769.88
2022-11-25T11:22:16.676Z,100774.44
2022-11-25T11:24:44.215Z,100753.25
2022-11-25T11:27:16.586Z,100769.81
2022-11-25T11:29:44.047Z,100771.03
2022-11-25T11:32:20.740Z,100780.78
2022-11-25T11:34:54.723Z,100777.84
2022-11-25T11:37:36.675Z,100796.41
2022-11-25T11:40:13.768Z,100791.97
2022-11-25T11:42:43.291Z,100788.09
2022-11-25T11:45:14.111Z,100794.53
2022-11-25T11:47:43.007Z,100789.06
2022-11-25T11:50:18.516Z,100796.81
2022-11-25T11:52:50.413Z,100783.19
2022-11-25T11:55:21.429Z,100797.88
2022-11-25T11:57:51.844Z,100795.88
2022-11-25T12:00:19.601Z,100816.09
2022-11-25T12:02:54.057Z,100813.41
2022-11-25T12:05:23.134Z,100800.44
2022-11-25T12:07:55.274Z,100824.63
2022-11-25T12:10:24.951Z,100822.91
2022-11-25T12:12:54.160Z,100819.91
2022-11-25T12:15:23.532Z,100816.81
2022-11-25T12:17:52.675Z,100816.22
2022-11-25T12:20:23.585Z,100833.06
2022-11-25T12:22:52.218Z,100829.38
2022-11-25T12:25:21.600Z,100840.94
2022-11-25T12:27:50.284Z,100822.28
2022-11-25T12:30:18.532Z,100849.78
2022-11-25T12:32:58.235Z,100825.31
2022-11-25T12:35:29.276Z,100838.09
2022-11-25T12:38:00.058Z,100848.22
2022-11-25T12:40:30.817Z,100842.31
2022-11-25T12:43:03.513Z,100853.84
2022-11-25T12:45:31.048Z,100860.50
2022-11-25T12:47:58.544Z,100835.34
2022-11-25T12:50:29.755Z,100859.31
2022-11-25T12:52:57.933Z,100878.09
2022-11-25T12:55:25.849Z,100883.22
2022-11-25T12:58:11.237Z,100860.91
2022-11-25T13:00:43.608Z,100874.41
2022-11-25T13:03:31.119Z,100881.47
2022-11-25T13:06:16.772Z,100887.94
2022-11-25T13:08:50.025Z,100872.34
2022-11-25T13:11:22.530Z,100885.66
2022-11-25T13:13:52.699Z,100898.50
2022-11-25T13:16:21.071Z,100898.78
2022-11-25T13:18:48.939Z,100879.78
2022-11-25T13:21:16.546Z,100886.19
2022-11-25T13:23:49.594Z,100894.56
2022-11-25T13:26:37.382Z,100887.28
2022-11-25T13:29:22.796Z,100906.25
2022-11-25T13:32:00.921Z,100906.44
2022-11-25T13:34:30.584Z,100895.63
2022-11-25T13:36:58.583Z,100907.59
2022-11-25T13:39:32.741Z,100910.72
2022-11-25T13:42:01.106Z,100910.38
2022-11-25T13:44:30.836Z,100909.25
2022-11-25T13:46:59.246Z,100918.56
2022-11-25T13:49:32.559Z,100934.25
2022-11-25T13:52:00.689Z,100918.22
2022-11-25T13:54:34.142Z,100942.72
2022-11-25T13:57:22.803Z,100931.78
2022-11-25T13:59:51.267Z,100918.00
2022-11-25T14:02:29.993Z,100940.03
2022-11-25T14:04:59.876Z,100931.59
2022-11-25T14:07:28.331Z,100948.97
2022-11-25T14:09:58.208Z,100929.13
2022-11-25T14:12:38.460Z,100930.69
2022-11-25T14:15:12.123Z,100947.25
2022-11-25T14:17:45.333Z,100954.25
2022-11-25T14:20:21.735Z,100950.72
2022-11-25T14:22:57.647Z,100958.53
2022-11-25T14:25:26.725Z,100956.53
2022-11-25T14:28:02.403Z,100948.88
2022-11-25T14:30:31.302Z,100954.28
2022-11-25T14:33:01.071Z,100968.53
2022-11-25T14:35:32.076Z,100976.88
2022-11-25T14:38:00.343Z,100976.84
2022-11-25T14:40:28.414Z,100978.66
2022-11-25T14:42:59.760Z,100997.97
2022-11-25T14:45:29.495Z,100984.38
2022-11-25T14:47:57.029Z,100983.47
2022-11-25T14:50:34.797Z,100992.31
2022-11-25T14:53:07.336Z,100982.97
2022-11-25T14:55:34.966Z,100981.34
2022-11-25T14:58:02.488Z,100994.50
2022-11-25T15:00:30.043Z,100988.88
2022-11-25T15:02:58.882Z,100992.81
2022-11-25T15:05:27.255Z,101006.59
2022-11-25T15:07:57.149Z,101015.97
2022-11-25T15:10:37.069Z,101015.31
2022-11-25T15:13:06.303Z,101025.06
2022-11-25T15:15:33.749Z,101017.94
2022-11-25T15:18:04.815Z,101035.41
2022-11-25T15:20:35.083Z,101037.94
2022-11-25T15:23:02.624Z,101027.84
2022-11-25T15:25:30.145Z,101035.56
2022-11-25T15:27:59.048Z,101044.19
2022-11-25T15:30:27.355Z,101058.06
2022-11-25T15:32:54.973Z,101056.53
2022-11-25T15:35:23.288Z,101052.88
2022-11-25T15:37:50.865Z,101066.59
2022-11-25T15:40:31.107Z,101059.44
2022-11-25T15:42:59.906Z,101077.50
2022-11-25T15:45:27.967Z,101071.03
2022-11-25T15:47:55.485Z,101077.84
2022-11-25T15:50:23.613Z,101073.94
2022-11-25T15:52:51.547Z,101075.13
2022-11-25T15:55:19.770Z,101090.66
2022-11-25T15:57:49.747Z,101081.13
2022-11-25T16:00:19.732Z,101087.50
2022-11-25T16:02:51.757Z,101087.81
2022-11-25T16:05:24.995Z,101100.09
2022-11-25T16:07:57.875Z,101091.59
2022-11-25T16:10:26.196Z,101096.59
2022-11-25T16:13:08.524Z,101111.53
2022-11-25T16:15:44.458Z,101118.91
2022-11-25T16:18:38.724Z,101113.06
2022-11-25T16:21:00.729Z,101122.53
2022-11-25T16:23:28.179Z,101134.69
2022-11-25T16:25:56.985Z,101151.50
2022-11-25T16:28:25.294Z,101140.06
2022-11-25T16:30:57.857Z,101143.28
2022-11-25T16:33:26.912Z,101140.22
2022-11-25T16:35:54.430Z,101158.84
2022-11-25T16:38:21.909Z,101162.31
2022-11-25T16:40:49.425Z,101167.00
2022-11-25T16:43:17.280Z,101172.25
2022-11-25T16:45:44.767Z,101182.09
2022-11-25T16:48:16.538Z,101181.56
2022-11-25T16:50:44.027Z,101180.56
2022-11-25T16:53:11.630Z,101177.00
2022-11-25T16:55:39.207Z,101181.50
2022-11-25T16:58:06.769Z,101198.25
2022-11-25T17:00:34.216Z,101195.88
2022-11-25T17:03:01.691Z,101207.91
2022-11-25T17:05:30.874Z,101204.22
2022-11-25T17:07:58.410Z,101204.84
2022-11-25T17:10:27.555Z,101211.41
2022-11-25T17:12:55.155Z,101213.91
2022-11-25T17:15:24.737Z,101210.34
2022-11-25T17:17:52.319Z,101218.16
2022-11-25T17:20:21.655Z,101223.00
2022-11-25T17:22:52.927Z,101233.41
2022-11-25T17:25:21.242Z,101232.34
2022-11-25T17:27:48.727Z,101236.53
2022-11-25T17:30:17.419Z,101240.25
2022-11-25T17:32:45.016Z,101245.25
2022-11-25T17:35:17.571Z,101249.56
2022-11-25T17:37:45.029Z,101255.22
2022-11-25T17:40:13.686Z,101257.22
2022-11-25T17:42:42.625Z,101267.03
2022-11-25T17:45:12.372Z,101268.69
2022-11-25T17:47:39.855Z,101271.72
2022-11-25T17:50:13.964Z,101273.84
2022-11-25T17:52:41.412Z,101273.41
2022-11-25T17:55:09.321Z,101284.94
2022-11-25T17:57:36.916Z,101286.56
2022-11-25T18:00:07.199Z,101292.41
2022-11-25T18:02:34.715Z,101296.91
2022-11-25T18:05:02.326Z,101300.22
2022-11-25T18:07:29.845Z,101314.16
2022-11-25T18:09:57.426Z,101320.53
2022-11-25T18:12:26.510Z,101313.44
2022-11-25T18:14:54.024Z,101314.06
2022-11-25T18:17:22.902Z,101325.06
2022-11-25T18:19:54.932Z,101334.22
2022-11-25T18:22:24.044Z,101335.00
2022-11-25T18:24:51.870Z,101324.84
2022-11-25T18:27:21.049Z,101336.94
2022-11-25T18:29:48.495Z,101343.44
2022-11-25T18:32:15.986Z,101331.28
2022-11-25T18:34:44.890Z,101340.31
2022-11-25T18:37:12.706Z,101354.22
2022-11-25T18:39:40.578Z,101365.09
2022-11-25T18:42:08.219Z,101374.47
2022-11-25T18:44:36.830Z,101370.41
2022-11-25T18:47:05.398Z,101364.00
2022-11-25T18:49:32.884Z,101370.72
2022-11-25T18:52:01.769Z,101375.13
2022-11-25T18:54:29.273Z,101391.91
2022-11-25T18:56:56.853Z,101386.09
2022-11-25T18:59:25.517Z,101380.91
2022-11-25T19:01:53.051Z,101387.53
2022-11-25T19:04:20.556Z,101392.69
2022-11-25T19:06:48.027Z,101400.00
2022-11-25T19:09:16.908Z,101404.47
2022-11-25T19:11:45.652Z,101392.00
2022-11-25T19:14:13.534Z,101405.72
2022-11-25T19:16:41.411Z,101410.91
2022-11-25T19:19:10.544Z,101416.00
2022-11-25T19:21:38.118Z,101421.25
2022-11-25T19:24:07.496Z,101425.91
2022-11-25T19:26:36.655Z,101429.25
2022-11-25T19:29:07.883Z,101426.00
2022-11-25T19:31:35.436Z,101445.13
2022-11-25T19:34:03.018Z,101444.16
2022-11-25T19:36:31.219Z,101447.19
2022-11-25T19:38:58.717Z,101453.84
2022-11-25T19:41:26.240Z,101454.53
2022-11-25T19:43:55.108Z,101450.06
2022-11-25T19:46:29.657Z,101464.19
2022-11-25T19:48:58.137Z,101469.84
2022-11-25T19:51:25.875Z,101469.25
2022-11-25T19:53:53.697Z,101482.88
2022-11-25T19:56:23.721Z,101483.78
2022-11-25T19:58:52.520Z,101477.47
2022-11-25T20:01:21.889Z,101481.81
2022-11-25T20:03:50.767Z,101485.94
2022-11-25T20:06:18.836Z,101486.03
2022-11-25T20:08:46.514Z,101496.03
2022-11-25T20:11:14.176Z,101498.66
2022-11-25T20:13:41.917Z,101496.16
2022-11-25T20:16:11.078Z,101486.16
2022-11-25T20:18:39.931Z,101494.25
2022-11-25T20:21:07.457Z,101497.56
2022-11-25T20:23:41.795Z,101501.72
2022-11-25T20:26:11.643Z,101504.19
2022-11-25T20:28:39.140Z,101501.41
2022-11-25T20:31:06.723Z,101511.00
2022-11-25T20:33:34.282Z,101513.09
2022-11-25T20:36:04.615Z,101525.66
2022-11-25T20:38:32.263Z,101529.38
2022-11-25T20:40:59.824Z,101536.97
2022-11-25T20:43:28.597Z,101535.50
2022-11-25T20:45:56.431Z,101538.66
2022-11-25T20:48:24.301Z,101547.09
2022-11-25T20:50:51.849Z,101542.88
2022-11-25T20:53:21.128Z,101546.94
2022-11-25T20:55:48.802Z,101557.63
2022-11-25T20:58:23.031Z,101556.06
2022-11-25T21:00:56.868Z,101563.88
2022-11-25T21:03:24.988Z,101565.38
2022-11-25T21:05:52.633Z,101563.72
2022-11-25T21:08:23.030Z,101559.91
2022-11-25T21:10:50.966Z,101565.53
2022-11-25T21:13:19.445Z,101578.81
2022-11-25T21:15:47.007Z,101581.25
2022-11-25T21:18:14.463Z,101581.34
2022-11-25T21:20:42.128Z,101581.44
2022-11-25T21:23:11.037Z,101593.81
2022-11-25T21:25:39.889Z,101586.75
2022-11-25T21:28:07.339Z,101602.56
2022-11-25T21:30:34.877Z,101602.47
2022-11-25T21:33:02.670Z,101602.69
2022-11-25T21:35:30.948Z,101603.63
2022-11-25T21:37:58.410Z,101591.44
2022-11-25T21:40:31.042Z,101601.03
2022-11-25T21:42:59.921Z,101610.34
2022-11-25T21:45:27.428Z,101603.75
2022-11-25T21:47:54.941Z,101611.69
2022-11-25T21:50:22.476Z,101615.78
2022-11-25T21:52:50.057Z,101614.56
2022-11-25T21:55:17.924Z,101614.03
2022-11-25T21:57:45.406Z,101626.88
2022-11-25T22:00:24.504Z,101625.72
2022-11-25T22:02:52.151Z,101645.59
2022-11-25T22:05:20.232Z,101649.31
2022-11-25T22:07:48.037Z,101648.47
2022-11-25T22:10:15.961Z,101652.72
2022-11-25T22:12:43.869Z,101652.56
2022-11-25T22:15:12.893Z,101658.03
2022-11-25T22:17:41.738Z,101657.94
2022-11-25T22:20:15.607Z,101651.13
2022-11-25T22:22:43.121Z,101660.16
2022-11-25T22:25:10.908Z,101663.56
2022-11-25T22:27:38.428Z,101661.38
2022-11-25T22:30:06.574Z,101664.19
2022-11-25T22:32:34.111Z,101674.69
2022-11-25T22:35:02.977Z,101686.47
2022-11-25T22:37:32.263Z,101688.00
2022-11-25T22:39:59.740Z,101695.44
2022-11-25T22:42:27.860Z,101688.72
2022-11-25T22:44:55.596Z,101696.16
2022-11-25T22:47:24.229Z,101695.22
2022-11-25T22:49:52.794Z,101703.03
2022-11-25T22:52:22.448Z,101698.75
2022-11-25T22:54:50.171Z,101691.81
2022-11-25T22:57:17.669Z,101708.59
2022-11-25T22:59:45.163Z,101703.34
2022-11-25T23:02:15.916Z,101712.00
2022-11-25T23:04:43.460Z,101710.19
2022-11-25T23:07:11.583Z,101720.66
2022-11-25T23:09:40.480Z,101712.97
2022-11-25T23:12:09.890Z,101716.25
2022-11-25T23:14:37.514Z,101712.31
2022-11-25T23:17:05.225Z,101710.81
2022-11-25T23:19:32.730Z,101723.94
2022-11-25T23:22:00.236Z,101720.25
2022-11-25T23:24:27.706Z,101717.19
2022-11-25T23:26:56.503Z,101720.94
2022-11-25T23:29:24.034Z,101719.13
2022-11-25T23:31:51.609Z,101724.97
2022-11-25T23:34:19.175Z,101730.06
2022-11-25T23:36:47.531Z,101732.84
2022-11-25T23:39:17.115Z,101738.75
2022-11-25T23:41:44.574Z,101735.03
2022-11-25T23:44:14.213Z,101732.59
2022-11-25T23:46:41.753Z,101737.44
2022-11-25T23:49:10.467Z,101736.59
2022-11-25T23:51:37.976Z,101747.88
2022-11-25T23:54:05.536Z,101731.34
2022-11-25T23:56:32.995Z,101741.59
2022-11-25T23:59:01.160Z,101742.06
